Time;durP1;ratioP1;P1;durP2;ratioP2;P2;SDS_P1;SDS_P2;PMS_P1;PMS_P2;Temp;Humidity;BMP_temperature;BMP_pressure;BME280_temperature;BME280_humidity;BME280_pressure;Samples;Min_cycle;Max_cycle;Signal;HPM_P1;HPM_P2
2021/03/11 00:01:16;;;;;;;14.73;6.37;;;6.10;99.90;;;;;;1985936;71;21050;-75
2021/03/11 00:03:42;;;;;;;12.65;6.97;;;6.10;99.90;;;;;;1990959;71;21055;-74
2021/03/11 00:06:08;;;;;;;18.10;7.15;;;6.10;99.90;;;;;;1988726;71;21175;-75
2021/03/11 00:08:34;;;;;;;13.35;6.22;;;6.20;99.90;;;;;;1985903;71;21132;-74
2021/03/11 00:11:00;;;;;;;12.85;6.45;;;6.10;99.90;;;;;;1982280;71;21017;-74
2021/03/11 00:13:26;;;;;;;13.03;6.37;;;6.20;99.90;;;;;;1992737;72;21038;-75
2021/03/11 00:15:52;;;;;;;10.43;5.80;;;6.20;99.90;;;;;;1992430;72;21197;-75
2021/03/11 00:18:19;;;;;;;11.83;6.33;;;6.20;99.90;;;;;;1989098;71;21057;-74
2021/03/11 00:20:45;;;;;;;14.40;6.10;;;6.20;99.90;;;;;;1991714;71;21035;-75
2021/03/11 00:23:11;;;;;;;14.00;6.87;;;6.20;99.90;;;;;;1984938;71;21059;-75
2021/03/11 00:25:37;;;;;;;12.40;6.47;;;6.20;99.90;;;;;;1985445;71;21070;-75
2021/03/11 00:28:03;;;;;;;12.95;6.72;;;6.20;99.90;;;;;;1989665;71;21054;-75
2021/03/11 00:30:29;;;;;;;12.95;6.70;;;6.10;99.90;;;;;;1988835;71;21053;-75
2021/03/11 00:32:55;;;;;;;10.20;5.97;;;6.10;99.90;;;;;;1991121;71;21136;-75
2021/03/11 00:35:22;;;;;;;13.20;6.03;;;6.20;99.90;;;;;;1995558;72;21019;-74
2021/03/11 00:37:48;;;;;;;12.18;6.05;;;6.20;99.90;;;;;;1989535;71;21094;-75
2021/03/11 00:40:14;;;;;;;10.80;6.00;;;6.10;99.90;;;;;;1987651;71;21058;-75
2021/03/11 00:42:40;;;;;;;13.38;6.25;;;6.20;99.90;;;;;;1993100;72;21445;-74
2021/03/11 00:45:06;;;;;;;12.68;6.35;;;6.20;99.90;;;;;;1985974;71;21478;-75
2021/03/11 00:47:32;;;;;;;13.50;5.75;;;6.10;99.90;;;;;;1983820;71;21243;-75
2021/03/11 00:49:59;;;;;;;12.58;6.28;;;6.10;99.90;;;;;;1983165;71;21470;-76
2021/03/11 00:52:25;;;;;;;9.95;5.72;;;6.10;99.90;;;;;;1988118;71;21053;-74
2021/03/11 00:54:51;;;;;;;10.58;6.60;;;6.10;99.90;;;;;;1985928;71;21123;-75
2021/03/11 00:57:17;;;;;;;16.35;6.05;;;6.20;99.90;;;;;;1995521;72;21050;-75
2021/03/11 00:59:43;;;;;;;14.38;7.33;;;6.30;99.90;;;;;;1992394;71;21117;-75
2021/03/11 01:02:09;;;;;;;13.13;6.70;;;6.20;99.90;;;;;;1987846;71;21059;-76
2021/03/11 01:04:35;;;;;;;13.90;6.62;;;6.20;99.90;;;;;;1986356;71;21045;-76
2021/03/11 01:07:01;;;;;;;10.80;6.85;;;6.20;99.90;;;;;;1994898;71;21042;-75
2021/03/11 01:09:28;;;;;;;12.35;6.60;;;6.20;99.90;;;;;;1991827;71;21112;-75
2021/03/11 01:11:54;;;;;;;11.80;6.53;;;6.20;99.90;;;;;;1992378;72;20979;-74
2021/03/11 01:14:20;;;;;;;15.28;6.28;;;6.20;99.90;;;;;;1991553;71;21050;-74
2021/03/11 01:16:46;;;;;;;12.70;7.00;;;6.20;99.90;;;;;;1991373;71;21062;-74
2021/03/11 01:19:12;;;;;;;18.05;7.30;;;6.20;99.90;;;;;;1982059;71;21047;-74
2021/03/11 01:21:38;;;;;;;11.30;6.45;;;6.20;99.90;;;;;;1992449;72;21163;-74
2021/03/11 01:24:04;;;;;;;8.65;5.67;;;6.40;99.90;;;;;;1990161;71;21030;-74
2021/03/11 01:26:30;;;;;;;17.30;7.42;;;6.30;99.90;;;;;;1985365;71;21138;-74
2021/03/11 01:28:57;;;;;;;12.73;6.90;;;6.30;99.90;;;;;;1993498;72;21484;-74
2021/03/11 01:31:23;;;;;;;16.10;6.95;;;6.30;99.90;;;;;;1991357;71;21116;-74
2021/03/11 01:33:49;;;;;;;13.58;6.35;;;6.20;99.90;;;;;;1994368;71;21066;-74
2021/03/11 01:36:15;;;;;;;11.97;6.83;;;6.20;99.90;;;;;;1989461;71;21049;-74
2021/03/11 01:38:42;;;;;;;12.60;6.35;;;6.20;99.90;;;;;;1993978;72;21023;-74
2021/03/11 01:41:08;;;;;;;17.40;7.05;;;6.20;99.90;;;;;;1987340;71;21098;-74
2021/03/11 01:43:34;;;;;;;10.70;6.33;;;6.40;99.90;;;;;;1994773;72;21058;-74
2021/03/11 01:46:00;;;;;;;14.87;6.95;;;6.40;99.90;;;;;;1992747;71;21116;-74
2021/03/11 01:48:26;;;;;;;10.18;6.10;;;6.50;99.90;;;;;;1993021;72;21116;-74
2021/03/11 01:50:52;;;;;;;8.88;5.33;;;6.60;99.90;;;;;;1993231;71;21115;-75
2021/03/11 01:53:18;;;;;;;12.33;5.47;;;6.60;99.90;;;;;;1992558;72;21078;-73
2021/03/11 01:55:44;;;;;;;10.68;5.95;;;6.60;99.90;;;;;;1987624;71;21515;-75
2021/03/11 01:58:11;;;;;;;12.58;5.87;;;6.70;99.90;;;;;;1994595;71;21469;-73
2021/03/11 02:00:37;;;;;;;8.38;4.90;;;6.70;99.90;;;;;;1985720;71;21434;-72
2021/03/11 02:03:03;;;;;;;10.32;5.33;;;6.70;99.90;;;;;;1988632;71;21139;-73
2021/03/11 02:05:29;;;;;;;9.53;5.25;;;6.70;99.90;;;;;;1986962;71;21050;-72
2021/03/11 02:07:55;;;;;;;10.60;5.15;;;6.70;99.90;;;;;;1989012;71;21059;-73
2021/03/11 02:10:22;;;;;;;15.38;6.03;;;6.80;99.90;;;;;;1989239;71;21123;-73
2021/03/11 02:12:48;;;;;;;7.97;5.10;;;7.00;99.90;;;;;;1991261;71;21117;-72
2021/03/11 02:15:14;;;;;;;7.80;5.12;;;7.00;99.90;;;;;;1993667;71;21152;-72
2021/03/11 02:17:40;;;;;;;9.30;5.35;;;6.90;99.90;;;;;;1992291;71;21059;-73
2021/03/11 02:20:06;;;;;;;11.95;5.60;;;7.00;99.90;;;;;;1992642;72;21027;-72
2021/03/11 02:22:33;;;;;;;9.98;5.47;;;7.00;99.90;;;;;;1989912;71;21023;-73
2021/03/11 02:24:59;;;;;;;12.50;6.25;;;7.00;99.90;;;;;;1979351;71;21122;-72
2021/03/11 02:27:25;;;;;;;9.30;5.80;;;6.90;99.90;;;;;;1986850;71;21041;-75
2021/03/11 02:29:51;;;;;;;11.75;5.72;;;6.80;99.90;;;;;;1989537;71;21151;-72
2021/03/11 02:32:17;;;;;;;11.22;6.12;;;6.70;99.90;;;;;;1986958;71;21128;-72
2021/03/11 02:34:43;;;;;;;10.08;5.85;;;6.70;99.90;;;;;;1995174;72;21127;-72
2021/03/11 02:37:10;;;;;;;10.30;5.58;;;6.70;99.90;;;;;;1986919;71;21039;-72
2021/03/11 02:39:36;;;;;;;11.97;6.37;;;6.60;99.90;;;;;;1996581;72;21039;-73
2021/03/11 02:42:02;;;;;;;10.00;5.83;;;6.60;99.90;;;;;;1996105;71;21031;-71
2021/03/11 02:44:29;;;;;;;13.45;6.22;;;6.60;99.90;;;;;;1982129;71;21178;-72
2021/03/11 02:46:55;;;;;;;10.45;6.28;;;6.70;99.90;;;;;;1992242;71;21054;-72
2021/03/11 02:49:21;;;;;;;10.03;5.75;;;6.70;99.90;;;;;;1992411;72;21054;-72
2021/03/11 02:51:47;;;;;;;9.83;6.05;;;6.60;99.90;;;;;;1989238;71;21122;-73
2021/03/11 02:54:13;;;;;;;12.18;5.97;;;6.60;99.90;;;;;;1986931;71;21055;-72
2021/03/11 02:56:39;;;;;;;10.63;6.30;;;6.70;99.90;;;;;;1978254;71;21041;-73
2021/03/11 02:59:06;;;;;;;10.13;5.60;;;6.70;99.90;;;;;;1988529;71;21031;-73
2021/03/11 03:01:32;;;;;;;10.58;5.53;;;6.80;99.90;;;;;;1980649;71;21115;-72
2021/03/11 03:03:58;;;;;;;9.18;5.53;;;6.80;99.90;;;;;;1982487;71;21062;-72
2021/03/11 03:06:24;;;;;;;13.62;5.12;;;6.90;99.90;;;;;;1989342;71;21181;-73
2021/03/11 03:08:50;;;;;;;10.98;5.42;;;6.80;99.90;;;;;;1988716;71;21046;-73
2021/03/11 03:11:16;;;;;;;10.88;5.80;;;6.70;99.90;;;;;;1992236;71;21011;-72
2021/03/11 03:13:43;;;;;;;15.35;6.20;;;6.80;99.90;;;;;;1992379;71;22555;-73
2021/03/11 03:16:09;;;;;;;11.30;5.62;;;6.70;99.90;;;;;;1992479;72;21486;-73
2021/03/11 03:18:35;;;;;;;12.85;5.45;;;6.70;99.90;;;;;;1992422;72;21528;-72
2021/03/11 03:21:01;;;;;;;12.03;5.50;;;6.80;99.90;;;;;;1985584;71;21045;-72
2021/03/11 03:23:27;;;;;;;12.60;5.95;;;6.90;99.90;;;;;;1989343;71;21066;-72
2021/03/11 03:25:53;;;;;;;10.10;5.90;;;7.00;99.90;;;;;;1990849;71;21031;-74
2021/03/11 03:28:19;;;;;;;16.85;5.78;;;7.00;99.90;;;;;;1986356;71;21127;-74
2021/03/11 03:30:47;;;;;;;7.78;4.90;;;7.00;99.90;;;;;;1988688;71;21216;-72
2021/03/11 03:33:13;;;;;;;17.42;6.12;;;6.90;99.90;;;;;;1991570;71;21540;-74
2021/03/11 03:35:39;;;;;;;9.58;5.45;;;6.90;99.90;;;;;;1986591;71;21127;-72
2021/03/11 03:38:05;;;;;;;10.15;5.92;;;6.90;99.90;;;;;;1991523;71;21030;-73
2021/03/11 03:40:32;;;;;;;10.88;5.67;;;6.80;99.90;;;;;;1992325;72;21101;-72
2021/03/11 03:42:58;;;;;;;13.80;6.12;;;6.90;99.90;;;;;;1992273;72;21102;-72
2021/03/11 03:45:24;;;;;;;8.33;4.95;;;7.00;99.90;;;;;;1989393;71;21054;-72
2021/03/11 03:47:50;;;;;;;7.87;5.25;;;6.90;99.90;;;;;;1989131;71;21237;-73
2021/03/11 03:50:16;;;;;;;9.23;5.08;;;6.90;99.90;;;;;;1993581;72;21024;-73
2021/03/11 03:52:42;;;;;;;10.43;5.53;;;6.80;99.90;;;;;;1993962;72;21050;-73
2021/03/11 03:55:08;;;;;;;13.53;5.92;;;6.90;99.90;;;;;;1988771;71;21111;-71
2021/03/11 03:57:34;;;;;;;8.85;5.45;;;7.10;99.90;;;;;;1986331;71;21035;-73
2021/03/11 04:00:00;;;;;;;9.18;5.22;;;7.00;99.90;;;;;;1992524;71;21127;-72
2021/03/11 04:02:27;;;;;;;7.50;4.97;;;6.90;99.90;;;;;;1989005;71;21022;-73
2021/03/11 04:04:53;;;;;;;7.50;4.80;;;7.00;99.90;;;;;;1989255;71;21055;-72
2021/03/11 04:07:19;;;;;;;7.60;5.10;;;7.00;99.90;;;;;;1990090;71;21186;-73
2021/03/11 04:09:45;;;;;;;12.15;5.85;;;7.10;99.90;;;;;;1985629;71;21474;-73
2021/03/11 04:12:11;;;;;;;12.15;4.92;;;7.00;99.90;;;;;;1989436;71;21488;-72
2021/03/11 04:14:37;;;;;;;17.37;5.37;;;7.00;99.90;;;;;;1991020;71;21438;-73
2021/03/11 04:17:03;;;;;;;9.95;5.15;;;7.10;99.90;;;;;;1992291;72;21460;-72
2021/03/11 04:19:29;;;;;;;5.15;3.90;;;7.30;99.90;;;;;;1987042;71;21193;-73
2021/03/11 04:21:56;;;;;;;8.53;3.95;;;7.40;99.90;;;;;;1991004;72;21042;-72
2021/03/11 04:24:22;;;;;;;6.87;3.87;;;7.50;99.90;;;;;;1992530;72;21054;-72
2021/03/11 04:26:48;;;;;;;7.50;3.80;;;7.50;99.90;;;;;;1992431;71;21047;-73
2021/03/11 04:29:14;;;;;;;4.35;2.67;;;7.50;99.90;;;;;;1988963;71;21027;-73
2021/03/11 04:31:40;;;;;;;3.30;2.10;;;7.70;99.90;;;;;;1992400;71;21137;-72
2021/03/11 04:34:06;;;;;;;7.17;2.65;;;7.80;99.90;;;;;;1992380;72;21195;-72
2021/03/11 04:36:33;;;;;;;3.67;2.45;;;8.20;99.90;;;;;;1989555;71;21140;-72
2021/03/11 04:38:59;;;;;;;3.58;2.42;;;8.40;99.90;;;;;;1990247;71;21476;-72
2021/03/11 04:41:25;;;;;;;5.00;2.72;;;8.40;99.90;;;;;;1992503;71;21513;-72
2021/03/11 04:43:52;;;;;;;8.35;2.08;;;8.50;99.90;;;;;;1991768;71;21058;-74
2021/03/11 04:46:18;;;;;;;2.95;2.05;;;8.50;99.90;;;;;;1985669;71;21116;-74
2021/03/11 04:48:44;;;;;;;4.62;2.40;;;8.60;99.90;;;;;;1979570;71;21027;-73
2021/03/11 04:51:10;;;;;;;2.70;1.82;;;8.70;99.90;;;;;;1985549;71;21137;-73
2021/03/11 04:53:36;;;;;;;4.40;2.40;;;9.00;99.90;;;;;;1992045;71;21060;-73
2021/03/11 04:56:04;;;;;;;4.00;2.87;;;8.90;99.90;;;;;;1990714;71;21070;-72
2021/03/11 04:58:30;;;;;;;6.53;2.87;;;8.80;99.90;;;;;;1994334;71;21124;-73
2021/03/11 05:00:56;;;;;;;4.47;2.42;;;8.70;99.90;;;;;;1990359;71;21047;-72
2021/03/11 05:03:22;;;;;;;4.92;2.60;;;8.70;99.90;;;;;;1990648;71;21031;-72
2021/03/11 05:05:48;;;;;;;2.25;1.90;;;8.70;99.90;;;;;;1989197;71;21055;-73
2021/03/11 05:08:14;;;;;;;11.18;2.08;;;8.90;99.90;;;;;;1987295;71;21111;-73
2021/03/11 05:10:41;;;;;;;3.17;2.10;;;9.00;99.90;;;;;;1992514;71;21127;-73
2021/03/11 05:13:07;;;;;;;5.42;1.98;;;8.90;99.90;;;;;;1988758;71;21152;-73
2021/03/11 05:15:33;;;;;;;3.00;1.70;;;9.00;99.90;;;;;;1985931;71;21128;-72
2021/03/11 05:17:59;;;;;;;3.12;1.75;;;9.20;99.90;;;;;;1990347;71;21042;-73
2021/03/11 05:20:25;;;;;;;4.50;1.37;;;9.40;99.90;;;;;;1992278;71;21035;-73
2021/03/11 05:22:51;;;;;;;1.60;1.20;;;9.60;99.90;;;;;;1992561;72;21127;-72
2021/03/11 05:25:17;;;;;;;3.10;1.22;;;9.90;99.90;;;;;;1988636;71;21112;-72
2021/03/11 05:27:43;;;;;;;1.45;1.00;;;10.10;99.90;;;;;;1992431;71;21097;-72
2021/03/11 05:30:10;;;;;;;2.40;1.27;;;10.10;99.90;;;;;;1992626;72;21151;-73
2021/03/11 05:32:36;;;;;;;1.40;1.10;;;10.20;99.90;;;;;;1990124;71;21042;-73
2021/03/11 05:35:02;;;;;;;1.87;1.30;;;10.10;99.90;;;;;;1993027;71;21116;-73
2021/03/11 05:37:28;;;;;;;2.60;1.37;;;10.20;99.90;;;;;;1987379;71;21131;-74
2021/03/11 05:39:54;;;;;;;1.75;0.82;;;10.30;99.90;;;;;;1984747;71;21167;-75
2021/03/11 05:42:20;;;;;;;3.60;1.60;;;10.30;99.90;;;;;;1990414;71;21035;-75
2021/03/11 05:44:46;;;;;;;3.10;1.12;;;10.30;99.90;;;;;;1993748;72;21494;-75
2021/03/11 05:47:12;;;;;;;3.20;1.05;;;10.30;99.90;;;;;;1989587;71;21448;-74
2021/03/11 05:49:39;;;;;;;5.25;1.15;;;10.40;99.90;;;;;;1997318;72;21462;-75
2021/03/11 05:52:05;;;;;;;2.40;1.37;;;10.40;99.90;;;;;;1991984;71;21443;-75
2021/03/11 05:54:31;;;;;;;2.58;1.00;;;10.50;99.90;;;;;;1993031;72;21556;-75
2021/03/11 05:56:57;;;;;;;1.32;0.98;;;10.50;99.90;;;;;;1977473;71;21061;-75
2021/03/11 05:59:23;;;;;;;1.90;1.20;;;10.50;99.90;;;;;;1992621;72;21046;-75
2021/03/11 06:01:49;;;;;;;11.22;1.50;;;10.50;99.90;;;;;;1993025;72;21148;-73
2021/03/11 06:04:15;;;;;;;1.52;1.20;;;10.50;99.90;;;;;;1993037;72;21054;-73
2021/03/11 06:06:41;;;;;;;2.75;1.07;;;10.50;99.90;;;;;;1985654;71;21119;-73
2021/03/11 06:09:08;;;;;;;2.25;0.90;;;10.50;99.90;;;;;;1990165;71;21127;-74
2021/03/11 06:11:34;;;;;;;1.20;1.10;;;10.50;99.90;;;;;;1992568;71;21031;-74
2021/03/11 06:14:00;;;;;;;2.05;1.20;;;10.50;99.90;;;;;;1993561;72;21147;-73
2021/03/11 06:16:26;;;;;;;2.00;1.27;;;10.50;99.90;;;;;;1993636;71;21055;-74
2021/03/11 06:18:52;;;;;;;1.27;1.17;;;10.50;99.90;;;;;;1989110;71;21050;-74
2021/03/11 06:21:18;;;;;;;3.87;1.25;;;10.50;99.90;;;;;;1987553;71;21050;-74
2021/03/11 06:23:44;;;;;;;2.10;1.17;;;10.50;99.90;;;;;;1990410;71;21039;-74
2021/03/11 06:26:11;;;;;;;3.08;1.10;;;10.40;99.90;;;;;;1993257;72;21108;-74
2021/03/11 06:28:37;;;;;;;3.83;1.30;;;10.40;99.90;;;;;;1993030;72;21043;-74
2021/03/11 06:31:03;;;;;;;2.12;1.42;;;10.50;99.90;;;;;;1985582;71;21116;-74
2021/03/11 06:33:29;;;;;;;1.57;1.30;;;10.50;99.90;;;;;;1992971;71;21128;-75
2021/03/11 06:35:55;;;;;;;2.30;0.80;;;10.50;99.90;;;;;;1993001;72;21533;-74
2021/03/11 06:38:21;;;;;;;2.00;1.32;;;10.50;99.90;;;;;;1989226;71;21452;-74
2021/03/11 06:40:47;;;;;;;1.67;0.93;;;10.50;99.90;;;;;;1987513;71;21124;-74
2021/03/11 06:43:14;;;;;;;1.25;1.00;;;10.60;99.90;;;;;;1993215;71;21119;-74
2021/03/11 06:45:40;;;;;;;1.62;1.02;;;10.60;99.90;;;;;;1992675;71;21082;-74
2021/03/11 06:48:06;;;;;;;1.27;1.15;;;10.60;99.90;;;;;;1996864;71;21037;-74
2021/03/11 06:50:32;;;;;;;1.77;0.93;;;10.70;99.90;;;;;;1983245;71;21128;-76
2021/03/11 06:52:58;;;;;;;1.62;1.05;;;10.70;99.90;;;;;;1989200;71;21119;-76
2021/03/11 06:55:24;;;;;;;2.80;1.40;;;10.70;99.90;;;;;;1982814;71;21049;-77
2021/03/11 06:57:50;;;;;;;3.02;1.17;;;10.70;99.90;;;;;;1995619;72;21085;-78
2021/03/11 07:00:16;;;;;;;2.77;1.42;;;10.80;99.90;;;;;;1993201;72;21143;-77
2021/03/11 07:02:42;;;;;;;1.52;1.12;;;10.90;99.90;;;;;;1974059;72;21071;-77
2021/03/11 07:05:09;;;;;;;1.05;0.90;;;10.90;99.90;;;;;;1978569;72;21146;-76
2021/03/11 07:07:35;;;;;;;5.87;1.20;;;10.90;99.90;;;;;;1977417;72;21067;-77
2021/03/11 07:10:01;;;;;;;1.30;1.00;;;10.90;99.90;;;;;;1972543;72;21071;-76
2021/03/11 07:12:27;;;;;;;6.20;1.30;;;10.90;99.90;;;;;;1975873;72;21059;-76
2021/03/11 07:14:53;;;;;;;0.95;0.85;;;10.90;99.90;;;;;;1978499;72;21195;-76
2021/03/11 07:17:19;;;;;;;3.80;1.17;;;10.90;99.90;;;;;;1978678;72;21054;-77
2021/03/11 07:19:46;;;;;;;9.28;1.05;;;11.10;99.90;;;;;;1979425;72;21066;-76
2021/03/11 07:22:14;;;;;;;1.40;1.10;;;11.10;99.90;;;;;;1978583;72;21058;-76
2021/03/11 07:24:40;;;;;;;13.05;0.88;;;11.20;99.90;;;;;;1975567;72;21543;-76
2021/03/11 07:27:06;;;;;;;2.47;0.85;;;11.20;99.90;;;;;;1975687;72;21456;-76
2021/03/11 07:29:32;;;;;;;1.20;0.93;;;11.30;99.90;;;;;;1978605;72;21482;-76
2021/03/11 07:31:58;;;;;;;1.67;0.95;;;11.40;99.90;;;;;;1977150;72;21132;-77
2021/03/11 07:34:24;;;;;;;1.75;0.80;;;11.40;99.90;;;;;;1978847;72;21137;-76
2021/03/11 07:36:51;;;;;;;3.22;0.85;;;11.50;99.90;;;;;;1975611;72;21130;-76
2021/03/11 07:39:17;;;;;;;2.12;0.75;;;11.50;99.90;;;;;;1978643;72;21132;-76
2021/03/11 07:41:43;;;;;;;5.97;1.02;;;11.50;99.90;;;;;;1976655;72;21090;-76
2021/03/11 07:44:10;;;;;;;1.00;0.88;;;11.60;99.90;;;;;;1991839;72;21115;-76
2021/03/11 07:46:37;;;;;;;8.53;0.98;;;11.60;99.90;;;;;;1964248;72;21067;-76
2021/03/11 07:49:03;;;;;;;1.30;0.93;;;11.70;99.90;;;;;;1979854;72;21067;-76
2021/03/11 07:51:29;;;;;;;0.70;0.70;;;11.80;99.90;;;;;;1983157;72;21132;-77
2021/03/11 07:53:57;;;;;;;1.10;0.80;;;11.80;99.90;;;;;;1987256;72;21057;-77
2021/03/11 07:56:23;;;;;;;1.12;0.80;;;11.90;99.90;;;;;;1990307;72;21044;-77
2021/03/11 07:58:49;;;;;;;4.03;0.80;;;11.90;99.90;;;;;;1964132;71;21067;-79
2021/03/11 08:01:15;;;;;;;1.77;0.90;;;12.00;99.90;;;;;;1975243;72;21058;-76
2021/03/11 08:03:41;;;;;;;0.42;0.40;;;12.00;99.90;;;;;;1978645;72;21059;-75
2021/03/11 08:06:08;;;;;;;1.77;0.82;;;12.00;99.90;;;;;;1976016;72;21036;-77
2021/03/11 08:08:39;;;;;;;2.60;1.10;;;12.10;99.90;;;;;;1977451;72;21055;-77
2021/03/11 08:11:02;;;;;;;0.95;0.75;;;12.20;99.90;;;;;;1963153;72;21087;-77
2021/03/11 08:13:28;;;;;;;0.95;0.62;;;12.20;99.90;;;;;;1977468;72;21054;-77
2021/03/11 08:15:54;;;;;;;0.82;0.70;;;12.20;99.90;;;;;;2000866;71;21026;-77
2021/03/11 08:18:20;;;;;;;2.22;0.65;;;12.20;99.90;;;;;;1975753;72;21059;-77
2021/03/11 08:20:46;;;;;;;1.07;0.60;;;12.30;99.90;;;;;;1983247;72;21065;-76
2021/03/11 08:23:13;;;;;;;1.55;0.60;;;12.30;99.90;;;;;;1965372;72;21136;-76
2021/03/11 08:25:40;;;;;;;2.70;0.90;;;12.50;99.90;;;;;;1981053;72;21064;-75
2021/03/11 08:28:07;;;;;;;0.42;0.42;;;12.40;99.90;;;;;;1975187;72;21519;-74
2021/03/11 08:30:33;;;;;;;0.70;0.50;;;12.50;99.90;;;;;;1970601;72;21851;-74
2021/03/11 08:32:59;;;;;;;5.62;1.00;;;12.60;99.90;;;;;;1970552;72;21482;-75
2021/03/11 08:35:25;;;;;;;1.67;1.05;;;12.60;99.90;;;;;;1976259;72;21496;-76
2021/03/11 08:37:51;;;;;;;0.93;0.60;;;12.70;99.90;;;;;;1975744;72;21518;-75
2021/03/11 08:40:17;;;;;;;1.30;0.75;;;12.70;99.90;;;;;;1976127;72;21135;-75
2021/03/11 08:42:45;;;;;;;1.75;1.10;;;12.70;99.90;;;;;;1980166;72;21194;-74
2021/03/11 08:45:11;;;;;;;1.37;0.68;;;12.60;99.90;;;;;;1978031;72;21126;-75
2021/03/11 08:47:37;;;;;;;1.65;0.78;;;12.70;99.90;;;;;;1963977;72;21082;-74
2021/03/11 08:50:03;;;;;;;0.98;0.70;;;12.70;99.90;;;;;;1980623;72;21575;-74
2021/03/11 08:52:29;;;;;;;0.80;0.70;;;12.80;99.90;;;;;;1979122;72;21466;-74
2021/03/11 08:54:56;;;;;;;3.70;0.72;;;12.90;99.90;;;;;;1976760;72;21492;-75
2021/03/11 08:57:22;;;;;;;0.75;0.75;;;12.80;99.90;;;;;;1978938;72;21537;-75
2021/03/11 08:59:48;;;;;;;0.53;0.53;;;12.90;99.90;;;;;;1978796;72;21431;-75
2021/03/11 09:02:14;;;;;;;1.12;0.70;;;13.00;99.90;;;;;;1974649;72;21067;-75
2021/03/11 09:04:40;;;;;;;6.22;0.70;;;13.00;99.90;;;;;;1975171;72;21073;-76
2021/03/11 09:07:07;;;;;;;0.95;0.62;;;13.20;99.90;;;;;;1983825;72;21070;-73
2021/03/11 09:09:33;;;;;;;4.10;0.72;;;13.30;99.90;;;;;;1978702;72;21383;-73
2021/03/11 09:11:59;;;;;;;1.07;0.50;;;13.50;99.90;;;;;;1978859;72;21486;-73
2021/03/11 09:14:25;;;;;;;0.40;0.40;;;13.60;99.90;;;;;;1975341;72;21494;-74
2021/03/11 09:16:51;;;;;;;0.33;0.33;;;13.70;99.90;;;;;;1975447;72;21573;-74
2021/03/11 09:19:17;;;;;;;8.45;0.65;;;13.80;99.90;;;;;;1972691;72;21426;-74
2021/03/11 09:21:43;;;;;;;0.85;0.50;;;13.80;99.90;;;;;;1985652;72;21090;-74
2021/03/11 09:24:09;;;;;;;1.40;0.40;;;13.80;99.90;;;;;;1978319;72;21067;-73
2021/03/11 09:26:36;;;;;;;0.82;0.47;;;13.80;99.90;;;;;;1975929;71;21137;-74
2021/03/11 09:29:02;;;;;;;3.72;0.88;;;13.90;99.90;;;;;;1982705;72;21075;-74
2021/03/11 09:31:28;;;;;;;1.57;0.70;;;13.80;99.90;;;;;;1978534;72;21117;-73
2021/03/11 09:33:54;;;;;;;8.38;0.70;;;13.80;99.90;;;;;;1978736;72;21063;-74
2021/03/11 09:36:20;;;;;;;0.98;0.65;;;13.80;99.90;;;;;;1972645;72;21065;-73
2021/03/11 09:38:46;;;;;;;0.62;0.60;;;13.90;99.90;;;;;;1976536;72;21036;-74
2021/03/11 09:41:13;;;;;;;0.42;0.42;;;13.90;99.90;;;;;;1977354;71;21039;-72
2021/03/11 09:43:39;;;;;;;1.00;0.50;;;13.90;99.90;;;;;;1980986;72;21564;-73
2021/03/11 09:46:05;;;;;;;0.95;0.50;;;13.90;99.90;;;;;;1975515;72;21067;-72
2021/03/11 09:48:31;;;;;;;0.95;0.60;;;14.00;99.90;;;;;;1977639;72;21395;-72
2021/03/11 09:50:57;;;;;;;0.50;0.50;;;14.00;99.90;;;;;;1978672;72;21051;-73
2021/03/11 09:53:23;;;;;;;1.35;0.78;;;14.10;99.90;;;;;;1978177;72;21027;-73
2021/03/11 09:55:49;;;;;;;3.35;0.47;;;14.10;99.90;;;;;;1981538;72;21067;-72
2021/03/11 09:58:16;;;;;;;4.47;0.80;;;14.20;99.90;;;;;;1975840;72;21067;-72
2021/03/11 10:00:42;;;;;;;1.40;0.68;;;14.30;99.90;;;;;;1982811;72;21113;-72
2021/03/11 10:03:08;;;;;;;1.07;0.35;;;14.40;99.90;;;;;;1978042;72;21032;-73
2021/03/11 10:05:34;;;;;;;0.85;0.30;;;14.40;99.90;;;;;;1986971;72;21602;-73
2021/03/11 10:08:00;;;;;;;0.55;0.50;;;14.30;99.90;;;;;;1964409;72;21544;-73
2021/03/11 10:10:26;;;;;;;1.35;0.62;;;14.20;99.90;;;;;;1979353;72;21508;-72
2021/03/11 10:12:52;;;;;;;0.37;0.37;;;14.20;99.90;;;;;;1998866;71;21418;-73
2021/03/11 10:15:19;;;;;;;1.20;0.60;;;14.20;99.90;;;;;;1988830;72;21489;-73
2021/03/11 10:17:45;;;;;;;0.45;0.33;;;14.10;99.90;;;;;;1962298;73;21128;-73
2021/03/11 10:20:11;;;;;;;6.78;0.40;;;14.20;99.90;;;;;;1961130;73;21131;-72
2021/03/11 10:22:37;;;;;;;0.30;0.30;;;14.30;99.90;;;;;;1959300;73;21127;-73
2021/03/11 10:25:03;;;;;;;2.08;0.85;;;14.30;99.90;;;;;;1960745;73;21082;-73
2021/03/11 10:27:29;;;;;;;0.53;0.40;;;14.30;99.90;;;;;;1960014;73;21482;-73
2021/03/11 10:29:55;;;;;;;0.50;0.50;;;14.40;99.90;;;;;;1962038;73;21095;-73
2021/03/11 10:32:22;;;;;;;0.45;0.30;;;14.40;99.90;;;;;;1962215;73;21097;-72
2021/03/11 10:34:48;;;;;;;1.95;0.30;;;14.50;99.90;;;;;;1960799;73;21065;-74
2021/03/11 10:37:14;;;;;;;0.20;0.20;;;14.50;99.90;;;;;;1959474;73;21054;-73
2021/03/11 10:39:40;;;;;;;0.40;0.40;;;14.50;99.90;;;;;;1957428;73;21074;-72
2021/03/11 10:42:06;;;;;;;0.30;0.30;;;14.50;99.90;;;;;;1959389;73;21057;-72
2021/03/11 10:44:34;;;;;;;0.33;0.30;;;14.50;99.90;;;;;;1960089;73;21074;-73
2021/03/11 10:47:01;;;;;;;0.78;0.45;;;14.70;99.90;;;;;;1960126;73;21547;-73
2021/03/11 10:49:27;;;;;;;0.55;0.33;;;14.70;99.90;;;;;;1961057;73;21493;-73
2021/03/11 10:51:53;;;;;;;0.42;0.40;;;14.90;99.90;;;;;;1963582;73;21446;-72
2021/03/11 10:54:19;;;;;;;0.42;0.30;;;14.90;99.90;;;;;;1962730;72;21579;-71
2021/03/11 10:56:45;;;;;;;0.30;0.30;;;15.00;99.90;;;;;;1958908;73;21070;-72
2021/03/11 10:59:14;;;;;;;3.35;0.72;;;15.00;99.90;;;;;;1960625;73;21057;-73
2021/03/11 11:01:39;;;;;;;0.30;0.25;;;14.90;99.90;;;;;;1959901;73;21034;-73
2021/03/11 11:04:05;;;;;;;10.32;0.68;;;14.80;99.90;;;;;;1956722;73;21061;-74
2021/03/11 11:06:31;;;;;;;0.30;0.30;;;14.90;99.90;;;;;;1960914;73;21825;-73
2021/03/11 11:08:57;;;;;;;0.47;0.20;;;14.80;99.90;;;;;;1960029;73;21567;-73
2021/03/11 11:11:23;;;;;;;0.78;0.40;;;14.80;99.90;;;;;;1961882;73;21490;-73
2021/03/11 11:13:50;;;;;;;1.45;0.20;;;14.80;99.90;;;;;;1960279;73;21480;-73
2021/03/11 11:16:16;;;;;;;0.28;0.28;;;14.80;99.90;;;;;;1961942;73;21058;-73
2021/03/11 11:18:42;;;;;;;3.95;0.28;;;14.80;99.90;;;;;;1961961;73;21093;-73
2021/03/11 11:21:08;;;;;;;0.15;0.15;;;14.80;99.90;;;;;;1960483;73;21148;-73
2021/03/11 11:23:35;;;;;;;0.40;0.33;;;14.70;99.90;;;;;;1960399;73;21439;-72
2021/03/11 11:26:01;;;;;;;0.50;0.30;;;14.70;99.90;;;;;;1962019;73;21490;-73
2021/03/11 11:28:27;;;;;;;1.00;0.30;;;14.50;99.90;;;;;;1961895;73;21607;-72
2021/03/11 11:30:53;;;;;;;3.85;0.45;;;14.40;99.90;;;;;;1962216;73;21481;-74
2021/03/11 11:33:19;;;;;;;4.17;0.40;;;14.20;99.90;;;;;;1960882;73;21466;-74
2021/03/11 11:35:45;;;;;;;0.37;0.20;;;14.00;99.90;;;;;;1961063;73;21031;-73
2021/03/11 11:38:13;;;;;;;0.30;0.30;;;13.90;99.90;;;;;;1959083;73;21085;-74
2021/03/11 11:40:39;;;;;;;1.50;0.40;;;13.80;99.90;;;;;;1961307;73;21058;-73
2021/03/11 11:43:05;;;;;;;2.37;0.50;;;13.60;99.90;;;;;;1959778;73;21131;-74
2021/03/11 11:45:31;;;;;;;0.40;0.20;;;13.40;99.90;;;;;;1961231;73;21142;-73
2021/03/11 11:47:57;;;;;;;0.72;0.30;;;13.30;99.90;;;;;;1961199;73;21070;-74
2021/03/11 11:50:23;;;;;;;2.87;0.40;;;13.20;99.90;;;;;;1960025;73;21131;-73
2021/03/11 11:52:49;;;;;;;2.02;0.50;;;13.30;99.90;;;;;;1959823;73;21077;-73
2021/03/11 11:55:15;;;;;;;0.17;0.17;;;13.20;99.90;;;;;;1961030;73;21108;-74
2021/03/11 11:57:42;;;;;;;2.75;0.33;;;13.10;99.90;;;;;;1960874;73;21549;-73
2021/03/11 12:00:08;;;;;;;0.82;0.30;;;13.00;99.90;;;;;;1960915;73;21476;-73
2021/03/11 12:05:19;;;;;;;2.92;0.40;;;13.00;99.90;;;;;;1913980;73;21209;-73
2021/03/11 12:07:45;;;;;;;0.13;0.13;;;12.90;99.90;;;;;;1947209;74;21022;-73
2021/03/11 12:10:11;;;;;;;0.75;0.60;;;13.00;99.90;;;;;;1954349;73;21101;-73
2021/03/11 12:12:38;;;;;;;2.22;0.53;;;13.00;99.90;;;;;;1956127;73;21122;-73
2021/03/11 12:15:04;;;;;;;0.78;0.62;;;13.10;99.90;;;;;;1936375;73;21130;-73
2021/03/11 12:17:31;;;;;;;1.10;0.68;;;13.20;99.90;;;;;;1953463;73;21098;-73
2021/03/11 12:19:57;;;;;;;0.95;0.42;;;13.20;99.90;;;;;;1956070;73;21179;-73
2021/03/11 12:22:23;;;;;;;0.47;0.45;;;13.30;99.90;;;;;;1953045;73;21161;-73
2021/03/11 12:24:49;;;;;;;0.42;0.42;;;13.40;99.90;;;;;;1949341;73;21084;-74
2021/03/11 12:27:16;;;;;;;0.40;0.40;;;13.40;99.90;;;;;;1939454;73;21088;-73
2021/03/11 12:29:42;;;;;;;0.57;0.35;;;13.40;99.90;;;;;;1951483;73;21099;-73
2021/03/11 12:32:08;;;;;;;2.65;0.30;;;13.50;99.90;;;;;;1943257;73;21108;-74
2021/03/11 12:34:34;;;;;;;1.65;0.70;;;13.50;99.90;;;;;;1937495;73;21059;-73
2021/03/11 12:37:02;;;;;;;3.70;0.70;;;13.60;99.90;;;;;;1942849;73;21115;-73
2021/03/11 12:39:28;;;;;;;0.80;0.30;;;13.80;99.90;;;;;;1931492;73;21175;-74
2021/03/11 12:41:54;;;;;;;0.50;0.50;;;14.00;99.90;;;;;;1932335;73;21087;-74
2021/03/11 12:44:20;;;;;;;0.40;0.40;;;14.20;99.90;;;;;;1938146;73;21131;-74